Weather at Leskovac / Mira Sport Airport

Public forecast

Using degrees Celsius for public forecast. Weather courtesy of forecast.io.

Closest aviation weather report (METAR) to Leskovac / Mira Sport Airport

Closest report is Nis Airport, 19.4 nm (35.9 km) N. Retrieved 2022/06/29 21:30 UTC (9 minutes ago):

LYNI 292130Z 10010KT CAVOK 25/12 Q1013 NOSIG

Closest aviation forecast (TAF) to Leskovac / Mira Sport Airport

Closest forecast is Nis Airport, 19.4 nm (35.9 km) N. Retrieved 2022/06/29 18:26 UTC (3 hours ago):

TAF LYNI 291700Z 2918/3018 11009KT CAVOK TX34/3014Z TN19/3003Z